Time;durP1;ratioP1;P1;durP2;ratioP2;P2;SDS_P1;SDS_P2;PMS_P1;PMS_P2;Temp;Humidity;BMP_temperature;BMP_pressure;BME280_temperature;BME280_humidity;BME280_pressure;Samples;Min_cycle;Max_cycle;Signal;HPM_P1;HPM_P2
2022/04/19 00:00:16;;;;;;;6.57;3.60;;;20.70;54.70;;;;;;5086685;28;20036;-71
2022/04/19 00:02:42;;;;;;;5.93;3.78;;;20.70;54.70;;;;;;5085578;28;20187;-70
2022/04/19 00:05:09;;;;;;;6.32;3.67;;;20.70;54.70;;;;;;5080495;28;20045;-70
2022/04/19 00:07:36;;;;;;;9.48;4.90;;;20.60;54.70;;;;;;5079784;28;20045;-70
2022/04/19 00:10:05;;;;;;;6.57;4.40;;;20.60;54.70;;;;;;5093649;28;20112;-70
2022/04/19 00:12:31;;;;;;;8.82;5.07;;;20.60;54.80;;;;;;5097190;28;20038;-70
2022/04/19 00:14:58;;;;;;;12.85;5.88;;;20.60;54.90;;;;;;5089253;28;20044;-71
2022/04/19 00:17:24;;;;;;;8.48;5.60;;;20.60;55.00;;;;;;5064997;28;20101;-69
2022/04/19 00:19:50;;;;;;;9.45;5.57;;;20.50;55.00;;;;;;5059433;28;21686;-69
2022/04/19 00:22:17;;;;;;;7.55;4.63;;;20.50;55.00;;;;;;5077293;28;20042;-69
2022/04/19 00:24:44;;;;;;;5.70;4.00;;;20.40;55.10;;;;;;5073983;28;20052;-70
2022/04/19 00:27:14;;;;;;;13.07;5.65;;;20.50;55.50;;;;;;5077739;28;20075;-71
2022/04/19 00:29:41;;;;;;;12.35;6.25;;;20.50;55.60;;;;;;5076277;28;20083;-70
2022/04/19 00:32:11;;;;;;;7.25;4.55;;;20.60;55.80;;;;;;5068214;28;20064;-69
2022/04/19 00:34:39;;;;;;;12.70;5.47;;;20.50;55.90;;;;;;5077883;28;20053;-70
2022/04/19 00:37:06;;;;;;;7.63;4.30;;;20.60;55.90;;;;;;5083155;28;20032;-69
2022/04/19 00:39:32;;;;;;;6.55;4.03;;;20.60;55.90;;;;;;5090410;28;20037;-69
2022/04/19 00:42:00;;;;;;;7.30;4.70;;;20.60;56.00;;;;;;5077232;28;20076;-69
2022/04/19 00:44:26;;;;;;;8.82;4.20;;;20.60;55.90;;;;;;5086130;28;20051;-70
2022/04/19 00:46:53;;;;;;;8.77;4.07;;;20.60;55.90;;;;;;5068236;28;20040;-69
2022/04/19 00:49:19;;;;;;;9.00;4.20;;;20.60;55.90;;;;;;5077660;28;20053;-69
2022/04/19 00:51:46;;;;;;;6.55;3.67;;;20.60;56.10;;;;;;5078065;28;20047;-69
2022/04/19 00:54:17;;;;;;;7.18;4.05;;;20.60;56.20;;;;;;5090295;28;20048;-69
2022/04/19 00:56:46;;;;;;;7.53;3.80;;;20.50;56.40;;;;;;5056889;28;20037;-69
2022/04/19 00:59:12;;;;;;;4.82;3.55;;;20.50;56.50;;;;;;5073617;28;20036;-70
2022/04/19 01:01:40;;;;;;;9.02;4.22;;;20.40;56.60;;;;;;5086683;28;20061;-70
2022/04/19 01:04:07;;;;;;;6.93;3.85;;;20.40;56.80;;;;;;5070153;28;20038;-69
2022/04/19 01:06:33;;;;;;;11.73;3.80;;;20.40;56.90;;;;;;5091234;28;20063;-69
2022/04/19 01:09:00;;;;;;;7.30;4.65;;;20.30;57.10;;;;;;5096101;28;20025;-69
2022/04/19 01:14:14;;;;;;;9.88;4.45;;;20.40;57.00;;;;;;5072516;28;20091;-70
2022/04/19 01:16:41;;;;;;;7.82;4.65;;;20.40;57.00;;;;;;5086702;28;20072;-70
2022/04/19 01:19:16;;;;;;;11.55;5.05;;;20.40;57.00;;;;;;5081165;28;20033;-69
2022/04/19 01:21:46;;;;;;;6.13;4.25;;;20.30;57.00;;;;;;5061230;28;20069;-70
2022/04/19 01:24:19;;;;;;;6.10;4.15;;;20.30;56.90;;;;;;5096559;28;20052;-70
2022/04/19 01:26:46;;;;;;;7.78;3.92;;;20.30;56.90;;;;;;5097100;28;20041;-69
2022/04/19 01:29:13;;;;;;;8.23;4.82;;;20.40;56.80;;;;;;5090788;28;20041;-70
2022/04/19 01:31:42;;;;;;;7.95;4.45;;;20.50;56.90;;;;;;5072103;28;20041;-69
2022/04/19 01:34:08;;;;;;;9.18;4.13;;;20.40;56.80;;;;;;5076782;28;20040;-69
2022/04/19 01:36:37;;;;;;;8.25;3.97;;;20.50;56.70;;;;;;5084174;28;20041;-70
2022/04/19 01:39:06;;;;;;;8.85;4.07;;;20.50;56.70;;;;;;5096735;28;20564;-70
2022/04/19 01:41:33;;;;;;;8.50;4.40;;;20.30;56.70;;;;;;5096526;28;20104;-70
2022/04/19 01:44:04;;;;;;;7.32;4.53;;;20.50;57.00;;;;;;5091207;28;20043;-70
2022/04/19 01:46:31;;;;;;;8.65;4.40;;;20.30;56.90;;;;;;5089682;28;20059;-70
2022/04/19 01:48:58;;;;;;;6.03;3.72;;;20.30;57.10;;;;;;5071938;28;20029;-70
2022/04/19 01:51:25;;;;;;;8.15;4.82;;;20.40;57.20;;;;;;5074251;28;20041;-70
2022/04/19 01:53:51;;;;;;;9.73;4.45;;;20.30;57.30;;;;;;5061755;28;20105;-69
2022/04/19 01:56:20;;;;;;;6.78;4.20;;;20.10;57.30;;;;;;5067066;28;20041;-70
2022/04/19 01:58:52;;;;;;;6.80;4.38;;;20.10;57.40;;;;;;5057244;28;20037;-69
2022/04/19 02:01:21;;;;;;;10.57;4.10;;;20.30;57.50;;;;;;5102907;28;20051;-70
2022/04/19 02:03:47;;;;;;;6.38;4.07;;;20.10;57.50;;;;;;5068353;28;20041;-70
2022/04/19 02:06:20;;;;;;;8.40;4.60;;;20.30;57.50;;;;;;5056442;28;20029;-71
2022/04/19 02:08:47;;;;;;;5.72;3.65;;;20.20;57.40;;;;;;5064441;28;20072;-70
2022/04/19 02:11:18;;;;;;;9.57;4.05;;;20.20;57.30;;;;;;5075308;28;20096;-69
2022/04/19 02:13:55;;;;;;;7.88;4.15;;;20.20;57.20;;;;;;5077333;28;20181;-69
2022/04/19 02:16:26;;;;;;;5.93;3.88;;;20.20;57.30;;;;;;5094045;28;20036;-70
2022/04/19 02:18:54;;;;;;;11.50;4.20;;;20.10;57.40;;;;;;5062419;28;20113;-69
2022/04/19 02:21:20;;;;;;;7.10;4.70;;;20.10;57.60;;;;;;5056510;28;20033;-69
2022/04/19 02:23:46;;;;;;;8.65;4.53;;;20.20;57.60;;;;;;5056614;28;20132;-69
2022/04/19 02:26:13;;;;;;;8.43;4.53;;;20.10;57.50;;;;;;5055701;28;20033;-69
2022/04/19 02:28:39;;;;;;;7.15;4.78;;;20.20;57.40;;;;;;5058694;28;20045;-69
2022/04/19 02:31:17;;;;;;;9.75;4.47;;;20.20;57.40;;;;;;5093337;28;20036;-70
2022/04/19 02:33:51;;;;;;;7.00;4.30;;;20.20;57.30;;;;;;5064926;28;20132;-69
2022/04/19 02:36:18;;;;;;;11.85;4.50;;;20.30;57.40;;;;;;5095812;28;20033;-70
2022/04/19 02:38:45;;;;;;;6.85;4.90;;;20.10;57.20;;;;;;5095783;28;20070;-69
2022/04/19 02:41:11;;;;;;;7.03;4.47;;;20.20;57.20;;;;;;5093332;28;20044;-70
2022/04/19 02:43:39;;;;;;;10.05;5.75;;;20.10;57.20;;;;;;5072632;28;20041;-70
2022/04/19 02:46:06;;;;;;;9.57;5.40;;;20.10;57.20;;;;;;5088813;28;20056;-69
2022/04/19 02:48:39;;;;;;;8.10;5.28;;;20.10;57.30;;;;;;5063379;28;20065;-69
2022/04/19 02:51:05;;;;;;;8.95;4.82;;;20.10;57.50;;;;;;5054053;28;20036;-70
2022/04/19 02:53:32;;;;;;;9.32;5.65;;;20.00;57.50;;;;;;5054734;28;20043;-69
2022/04/19 02:55:59;;;;;;;8.60;5.20;;;20.00;57.30;;;;;;5054431;28;20057;-69
2022/04/19 02:58:25;;;;;;;9.68;4.88;;;19.90;57.40;;;;;;5055516;28;20038;-70
2022/04/19 03:00:53;;;;;;;9.27;5.07;;;20.10;57.60;;;;;;5079254;28;20036;-71
2022/04/19 03:03:19;;;;;;;9.95;5.22;;;20.00;57.60;;;;;;5059526;28;20041;-69
2022/04/19 03:05:49;;;;;;;6.93;4.85;;;20.00;57.80;;;;;;5055790;28;20033;-69
2022/04/19 03:08:15;;;;;;;8.75;5.03;;;20.10;58.00;;;;;;5055952;28;20072;-70
2022/04/19 03:10:41;;;;;;;8.32;4.80;;;20.00;57.70;;;;;;5057795;28;20045;-69
2022/04/19 03:13:07;;;;;;;7.72;4.28;;;19.90;57.60;;;;;;5093821;28;20111;-69
2022/04/19 03:15:45;;;;;;;7.88;4.53;;;19.90;57.50;;;;;;5080030;28;20033;-71
2022/04/19 03:18:11;;;;;;;8.88;5.80;;;19.90;57.50;;;;;;5059308;28;20057;-70
2022/04/19 03:20:37;;;;;;;5.78;4.45;;;19.90;57.50;;;;;;5083413;28;20056;-69
2022/04/19 03:28:49;;;;;;;14.65;7.18;;;20.00;57.90;;;;;;5082625;28;20049;-70
2022/04/19 03:31:16;;;;;;;18.20;7.60;;;19.90;57.90;;;;;;5074988;28;20045;-70
2022/04/19 03:33:44;;;;;;;19.13;6.47;;;19.90;57.90;;;;;;5076996;28;20040;-70
2022/04/19 03:36:11;;;;;;;12.50;6.95;;;19.90;57.80;;;;;;5074936;28;20040;-69
2022/04/19 03:38:37;;;;;;;18.67;7.38;;;19.90;57.70;;;;;;5079534;28;20097;-70
2022/04/19 03:41:03;;;;;;;18.63;7.95;;;20.00;57.60;;;;;;5078263;28;20045;-70
2022/04/19 03:43:32;;;;;;;19.35;7.38;;;20.00;57.50;;;;;;5106610;28;20040;-69
2022/04/19 03:46:00;;;;;;;15.60;6.70;;;20.00;57.40;;;;;;5074801;28;20083;-70
2022/04/19 03:48:29;;;;;;;14.10;6.93;;;20.00;57.70;;;;;;5075309;28;20057;-69
2022/04/19 03:50:56;;;;;;;13.38;7.15;;;20.00;57.50;;;;;;5091458;28;20083;-69
2022/04/19 03:53:22;;;;;;;14.45;6.22;;;20.00;57.30;;;;;;5070965;28;20041;-69
2022/04/19 03:55:49;;;;;;;13.57;5.70;;;20.10;57.70;;;;;;5058589;28;20037;-69
2022/04/19 03:58:15;;;;;;;12.60;6.25;;;20.10;57.70;;;;;;5058532;28;20063;-69
2022/04/19 04:00:41;;;;;;;11.90;6.70;;;19.90;57.50;;;;;;5058788;28;20033;-70
2022/04/19 04:03:08;;;;;;;9.43;5.47;;;20.00;57.40;;;;;;5090839;28;20044;-69
2022/04/19 04:05:35;;;;;;;12.15;6.00;;;19.80;57.70;;;;;;5040314;28;20068;-69
2022/04/19 04:08:01;;;;;;;11.35;6.90;;;19.80;58.10;;;;;;5057223;28;20051;-70
2022/04/19 04:10:34;;;;;;;20.17;6.70;;;19.80;58.10;;;;;;5057562;28;20052;-69
2022/04/19 04:13:00;;;;;;;11.57;6.07;;;19.80;58.10;;;;;;5065003;28;20114;-69
2022/04/19 04:15:28;;;;;;;10.95;6.38;;;19.80;58.00;;;;;;5057707;28;20043;-69
2022/04/19 04:17:54;;;;;;;11.75;6.60;;;19.80;57.70;;;;;;5058617;28;20056;-69
2022/04/19 04:20:20;;;;;;;12.07;6.95;;;19.90;57.70;;;;;;5058310;28;20120;-69
2022/04/19 04:22:46;;;;;;;13.73;6.65;;;20.00;57.40;;;;;;5074633;28;20071;-69
2022/04/19 04:25:12;;;;;;;11.20;6.60;;;19.80;57.40;;;;;;5058210;28;20049;-69
2022/04/19 04:27:39;;;;;;;16.92;7.78;;;19.80;57.40;;;;;;5058147;28;20033;-69
2022/04/19 04:30:06;;;;;;;14.70;6.72;;;19.90;57.70;;;;;;5058575;28;20056;-69
2022/04/19 04:32:38;;;;;;;15.27;7.13;;;19.80;57.70;;;;;;5076447;28;20064;-70
2022/04/19 04:35:09;;;;;;;14.55;7.95;;;19.80;57.60;;;;;;5078028;28;20048;-69
2022/04/19 04:37:36;;;;;;;13.45;7.18;;;19.90;57.40;;;;;;5077769;28;20037;-69
2022/04/19 04:40:05;;;;;;;11.18;6.03;;;19.90;57.60;;;;;;5077867;28;20041;-69
2022/04/19 04:42:31;;;;;;;16.45;5.75;;;19.90;57.40;;;;;;5077601;28;20065;-69
2022/04/19 04:45:10;;;;;;;10.20;6.40;;;20.00;57.30;;;;;;5061852;28;20100;-70
2022/04/19 04:50:22;;;;;;;12.75;7.47;;;20.00;57.30;;;;;;5057887;28;20046;-69
2022/04/19 04:52:51;;;;;;;10.75;6.68;;;19.90;57.30;;;;;;5057507;28;20045;-70
2022/04/19 04:55:18;;;;;;;11.85;7.38;;;19.90;57.30;;;;;;5064655;28;20040;-69
2022/04/19 04:57:44;;;;;;;15.90;7.28;;;20.00;57.20;;;;;;5077761;28;20116;-69
2022/04/19 05:00:11;;;;;;;14.30;7.45;;;19.90;57.20;;;;;;5075790;28;20064;-69
2022/04/19 05:03:03;;;;;;;16.45;7.50;;;19.90;57.30;;;;;;5076850;28;20041;-70
2022/04/19 05:05:30;;;;;;;16.48;7.18;;;19.90;57.20;;;;;;5076995;28;20052;-70
2022/04/19 05:07:59;;;;;;;12.63;6.38;;;19.90;57.20;;;;;;5077164;28;20079;-68
2022/04/19 05:10:27;;;;;;;13.75;4.75;;;19.80;49.50;;;;;;5077132;28;20048;-68
2022/04/19 05:12:53;;;;;;;6.28;3.92;;;19.90;46.20;;;;;;5076877;28;20041;-68
2022/04/19 05:15:24;;;;;;;12.82;5.30;;;20.00;44.50;;;;;;5071208;28;20055;-69
2022/04/19 05:17:51;;;;;;;9.00;4.18;;;20.20;43.20;;;;;;5076940;28;20037;-68
2022/04/19 05:20:17;;;;;;;16.38;3.92;;;20.20;41.70;;;;;;5077068;28;20071;-69
2022/04/19 05:22:43;;;;;;;8.93;4.25;;;20.30;43.10;;;;;;5076630;28;20047;-68
2022/04/19 05:25:11;;;;;;;10.25;4.07;;;20.40;43.20;;;;;;5076753;28;20067;-68
2022/04/19 05:27:37;;;;;;;10.38;4.95;;;20.60;42.70;;;;;;5060144;28;20163;-69
2022/04/19 05:30:04;;;;;;;8.45;4.68;;;20.70;42.70;;;;;;5072322;28;20112;-69
2022/04/19 05:32:31;;;;;;;11.52;4.90;;;20.80;45.70;;;;;;5075913;28;20044;-70
2022/04/19 05:34:58;;;;;;;11.57;5.57;;;20.90;44.30;;;;;;5076564;28;20033;-69
2022/04/19 05:37:24;;;;;;;8.20;4.78;;;21.20;41.60;;;;;;5073908;28;20041;-68
2022/04/19 05:39:51;;;;;;;7.85;3.90;;;21.20;41.00;;;;;;5077298;28;20017;-68
2022/04/19 05:42:17;;;;;;;8.35;4.43;;;21.20;40.30;;;;;;5076435;28;20063;-68
2022/04/19 05:44:44;;;;;;;6.95;4.07;;;21.20;36.20;;;;;;5075518;28;20037;-68
2022/04/19 05:47:14;;;;;;;6.43;4.50;;;21.20;38.20;;;;;;5056955;28;20044;-68
2022/04/19 05:49:41;;;;;;;9.10;5.90;;;21.20;42.00;;;;;;5056497;28;20049;-68
2022/04/19 05:52:07;;;;;;;12.95;7.75;;;21.20;39.00;;;;;;5071877;28;20037;-69
2022/04/19 05:54:34;;;;;;;10.13;5.75;;;21.40;51.30;;;;;;5075160;28;20032;-69
2022/04/19 05:57:00;;;;;;;11.20;4.05;;;21.40;53.00;;;;;;5076264;28;20044;-70
2022/04/19 05:59:26;;;;;;;8.98;4.45;;;21.40;53.60;;;;;;5076420;28;20037;-71
2022/04/19 06:04:53;;;;;;;7.43;4.45;;;21.50;51.60;;;;;;5059629;28;20060;-70
2022/04/19 06:07:22;;;;;;;6.93;4.65;;;21.60;50.50;;;;;;5076366;28;20075;-70
2022/04/19 06:09:49;;;;;;;13.43;6.15;;;21.70;49.60;;;;;;5068303;28;20041;-70
2022/04/19 06:12:15;;;;;;;14.20;6.32;;;21.80;49.60;;;;;;5057037;28;20052;-70
2022/04/19 06:14:48;;;;;;;;;;;21.70;49.80;;;;;;5056431;28;20076;-70
2022/04/19 06:17:17;;;;;;;18.10;6.43;;;21.80;48.60;;;;;;5056175;28;19936;-69
2022/04/19 06:19:44;;;;;;;18.40;6.97;;;21.70;48.40;;;;;;5055936;28;20033;-68
2022/04/19 06:22:11;;;;;;;17.15;6.55;;;21.90;48.50;;;;;;5055912;28;20057;-70
2022/04/19 06:24:43;;;;;;;10.90;5.30;;;21.80;48.20;;;;;;5050667;28;20042;-71
2022/04/19 06:27:09;;;;;;;13.73;5.07;;;21.90;48.00;;;;;;5054685;28;20040;-70
2022/04/19 06:29:35;;;;;;;9.00;4.90;;;21.90;47.90;;;;;;5055486;28;20041;-70
2022/04/19 06:32:01;;;;;;;17.08;8.30;;;21.90;48.00;;;;;;5104350;28;20037;-69
2022/04/19 06:34:41;;;;;;;16.15;8.10;;;21.80;47.10;;;;;;5075452;28;20045;-70
2022/04/19 06:37:14;;;;;;;18.38;8.25;;;21.80;47.30;;;;;;5060024;28;20051;-70
2022/04/19 06:39:44;;;;;;;19.45;8.63;;;21.90;47.70;;;;;;5071037;28;20053;-70
2022/04/19 06:42:11;;;;;;;16.05;7.78;;;21.70;48.10;;;;;;5066981;28;20045;-70
2022/04/19 06:44:57;;;;;;;11.52;6.65;;;21.70;49.00;;;;;;5066443;28;20067;-70
2022/04/19 06:47:27;;;;;;;12.00;7.38;;;21.70;49.70;;;;;;5076235;28;20045;-70
2022/04/19 06:49:57;;;;;;;11.10;6.32;;;21.60;50.30;;;;;;5075567;28;20080;-70
2022/04/19 06:52:24;;;;;;;10.95;6.43;;;21.70;50.50;;;;;;5075085;28;20067;-69
2022/04/19 06:54:51;;;;;;;16.02;7.05;;;21.50;50.90;;;;;;5074703;28;20062;-69
2022/04/19 06:57:17;;;;;;;16.65;6.70;;;21.50;51.60;;;;;;5075259;28;20048;-70
2022/04/19 06:59:43;;;;;;;13.32;6.78;;;21.60;51.70;;;;;;5065268;28;20037;-70
2022/04/19 07:02:10;;;;;;;11.25;6.63;;;21.60;51.70;;;;;;5056062;28;20786;-70
2022/04/19 07:04:37;;;;;;;18.73;6.95;;;21.60;52.00;;;;;;5075840;28;20041;-70
2022/04/19 07:07:06;;;;;;;15.27;7.28;;;21.60;52.10;;;;;;5075006;28;20037;-70
2022/04/19 07:09:32;;;;;;;10.50;6.80;;;21.50;52.40;;;;;;5074999;28;20049;-70
2022/04/19 07:12:00;;;;;;;18.88;6.68;;;21.40;52.70;;;;;;5075171;28;20047;-70
2022/04/19 07:14:31;;;;;;;12.63;6.45;;;21.50;53.00;;;;;;5069311;28;20033;-70
2022/04/19 07:16:58;;;;;;;14.10;6.45;;;21.50;53.00;;;;;;5074949;28;20036;-68
2022/04/19 07:19:25;;;;;;;10.57;6.75;;;21.40;53.10;;;;;;5055309;28;20041;-69
2022/04/19 07:27:59;;;;;;;6.55;4.20;;;21.30;53.00;;;;;;5054885;28;20071;-74
2022/04/19 07:30:26;;;;;;;15.43;5.72;;;21.50;52.40;;;;;;5088872;28;20064;-75
2022/04/19 07:32:52;;;;;;;6.95;3.13;;;21.50;51.70;;;;;;5071142;28;20112;-78
2022/04/19 07:35:24;;;;;;;7.60;3.70;;;21.50;50.50;;;;;;5055357;28;20041;-68
2022/04/19 07:37:51;;;;;;;6.50;4.20;;;21.60;49.50;;;;;;5074882;28;20032;-67
2022/04/19 07:40:19;;;;;;;7.13;4.07;;;21.60;49.30;;;;;;5069058;28;20040;-68
2022/04/19 07:42:46;;;;;;;8.95;4.43;;;21.70;48.90;;;;;;5073635;28;20045;-68
2022/04/19 07:45:13;;;;;;;8.93;3.88;;;21.70;48.00;;;;;;5070887;28;20036;-68
2022/04/19 07:47:41;;;;;;;5.28;3.92;;;21.70;47.30;;;;;;5074813;28;20044;-68
2022/04/19 07:50:07;;;;;;;8.68;3.70;;;21.80;48.80;;;;;;5075354;28;20041;-68
2022/04/19 07:52:34;;;;;;;6.88;3.70;;;21.70;51.70;;;;;;5074889;28;20032;-69
2022/04/19 07:55:02;;;;;;;3.67;3.20;;;21.70;50.90;;;;;;5074639;28;20044;-68
2022/04/19 07:57:28;;;;;;;5.22;3.10;;;21.60;50.20;;;;;;5073902;28;20033;-68
2022/04/19 07:59:55;;;;;;;6.28;3.20;;;21.60;48.00;;;;;;5070133;28;20037;-69
2022/04/19 08:02:24;;;;;;;5.15;2.92;;;21.70;48.20;;;;;;5054665;28;20041;-68
2022/04/19 08:04:51;;;;;;;4.80;2.55;;;21.60;50.30;;;;;;5054414;28;20041;-68
2022/04/19 08:07:17;;;;;;;4.40;2.47;;;21.50;50.70;;;;;;5053986;28;20047;-68
2022/04/19 08:09:43;;;;;;;5.35;1.90;;;21.50;51.00;;;;;;5054893;28;20037;-68
2022/04/19 08:12:11;;;;;;;3.70;2.22;;;21.30;51.20;;;;;;5054467;28;20060;-69
2022/04/19 08:14:41;;;;;;;3.50;2.33;;;21.30;50.40;;;;;;5054898;28;20045;-68
2022/04/19 08:17:08;;;;;;;2.95;1.65;;;21.40;50.90;;;;;;5055208;28;20076;-69
2022/04/19 08:19:34;;;;;;;3.83;2.20;;;21.20;51.10;;;;;;5074210;28;20042;-69
2022/04/19 08:22:02;;;;;;;4.20;2.17;;;21.30;51.00;;;;;;5058224;28;20045;-68
2022/04/19 08:24:33;;;;;;;1.70;1.55;;;21.30;50.70;;;;;;5058120;28;20029;-68
2022/04/19 08:27:00;;;;;;;3.33;1.88;;;21.40;51.40;;;;;;5058351;28;20060;-69
2022/04/19 08:29:26;;;;;;;1.77;1.48;;;21.40;51.80;;;;;;5091631;28;20041;-68
2022/04/19 08:31:52;;;;;;;5.60;2.58;;;21.30;51.80;;;;;;5074715;28;20046;-68
2022/04/19 08:34:20;;;;;;;5.32;2.25;;;21.30;51.40;;;;;;5057996;28;20045;-69
2022/04/19 08:36:47;;;;;;;6.15;1.42;;;21.40;50.90;;;;;;5058135;28;20048;-68
2022/04/19 08:39:13;;;;;;;3.33;2.40;;;21.40;51.90;;;;;;5058710;28;20121;-69
2022/04/19 08:41:40;;;;;;;2.42;1.70;;;21.40;47.80;;;;;;5074553;28;20044;-68
2022/04/19 08:44:08;;;;;;;3.05;2.00;;;21.50;49.50;;;;;;5074748;28;20029;-69
2022/04/19 08:46:41;;;;;;;2.10;1.83;;;21.40;52.00;;;;;;5075643;28;20051;-68
2022/04/19 08:49:08;;;;;;;2.47;1.60;;;21.30;52.10;;;;;;5077617;28;20056;-68
2022/04/19 08:51:36;;;;;;;2.35;1.67;;;21.40;51.90;;;;;;5065572;28;20044;-68
2022/04/19 08:59:32;;;;;;;3.92;2.83;;;21.70;51.70;;;;;;5058057;28;20045;-69
2022/04/19 09:01:59;;;;;;;3.10;2.03;;;21.80;51.50;;;;;;5058283;28;20638;-69
2022/04/19 09:04:26;;;;;;;4.88;2.00;;;21.80;50.40;;;;;;5063846;28;20041;-69
2022/04/19 09:06:56;;;;;;;2.45;2.00;;;21.60;50.70;;;;;;5078032;28;20052;-69
2022/04/19 09:09:24;;;;;;;3.92;2.05;;;21.60;52.00;;;;;;5078113;28;20045;-68
2022/04/19 09:11:51;;;;;;;2.97;1.48;;;21.60;52.20;;;;;;5077855;28;20075;-68
2022/04/19 09:14:19;;;;;;;3.08;2.25;;;21.60;52.40;;;;;;5075007;28;20064;-68
2022/04/19 09:16:45;;;;;;;3.75;2.20;;;21.60;52.00;;;;;;5076461;28;20070;-69
2022/04/19 09:19:30;;;;;;;3.47;2.53;;;21.60;50.60;;;;;;5077303;28;20037;-68
2022/04/19 09:21:57;;;;;;;4.07;1.90;;;21.70;50.30;;;;;;5077946;28;20052;-68
2022/04/19 09:24:25;;;;;;;3.13;1.98;;;21.60;51.70;;;;;;5077858;28;20067;-68
2022/04/19 09:26:52;;;;;;;3.90;2.10;;;21.60;51.80;;;;;;5077686;28;20108;-68
2022/04/19 09:29:20;;;;;;;3.38;1.75;;;21.60;51.40;;;;;;5075245;28;20033;-69
2022/04/19 09:31:47;;;;;;;4.50;1.95;;;21.60;51.50;;;;;;5057760;28;20067;-68
2022/04/19 09:34:31;;;;;;;6.18;2.53;;;21.60;50.90;;;;;;5057361;28;20033;-66
2022/04/19 09:37:07;;;;;;;2.25;2.05;;;21.60;51.90;;;;;;5057234;28;20037;-71
2022/04/19 09:39:37;;;;;;;2.45;1.95;;;21.70;50.00;;;;;;5063663;28;20035;-68
2022/04/19 09:42:05;;;;;;;6.88;3.40;;;21.60;43.70;;;;;;5077428;28;20057;-69
2022/04/19 09:44:50;;;;;;;2.83;2.00;;;21.70;41.20;;;;;;5076371;28;20185;-69
2022/04/19 09:47:17;;;;;;;3.10;2.05;;;21.80;38.20;;;;;;5057463;28;20662;-68
2022/04/19 09:49:51;;;;;;;3.58;1.65;;;21.90;37.20;;;;;;5089646;28;20071;-69
2022/04/19 09:52:21;;;;;;;3.65;2.38;;;21.80;46.30;;;;;;5077411;28;20049;-68
2022/04/19 09:55:11;;;;;;;4.20;1.92;;;21.90;47.40;;;;;;5067622;28;20044;-68
2022/04/19 09:57:39;;;;;;;2.97;2.22;;;21.80;50.00;;;;;;5057238;28;20033;-68
2022/04/19 10:00:14;;;;;;;3.28;1.98;;;21.90;50.30;;;;;;5057114;28;20044;-68
2022/04/19 10:08:21;;;;;;;2.30;1.92;;;22.00;44.60;;;;;;5057047;28;20180;-68
2022/04/19 10:10:52;;;;;;;7.90;2.03;;;22.00;42.00;;;;;;5065130;28;20047;-67
2022/04/19 10:13:20;;;;;;;3.90;1.95;;;22.20;49.30;;;;;;5096816;28;20309;-68
2022/04/19 10:15:47;;;;;;;3.30;1.98;;;22.40;39.40;;;;;;5087590;28;20048;-68
2022/04/19 10:18:13;;;;;;;3.85;2.33;;;22.40;37.40;;;;;;5077708;28;20041;-70
2022/04/19 10:20:55;;;;;;;3.40;2.00;;;22.30;46.20;;;;;;5076672;28;20052;-69
2022/04/19 10:23:39;;;;;;;5.60;2.35;;;22.20;48.30;;;;;;5076679;28;20041;-68
2022/04/19 10:26:22;;;;;;;5.50;2.47;;;22.30;49.20;;;;;;5074933;28;20041;-69
2022/04/19 10:28:52;;;;;;;2.33;1.80;;;22.20;49.60;;;;;;5071867;28;20048;-69
2022/04/19 10:31:26;;;;;;;3.28;2.20;;;22.40;50.50;;;;;;5078093;28;20038;-69
2022/04/19 10:33:53;;;;;;;3.58;2.08;;;22.30;51.90;;;;;;5069454;28;20045;-69
2022/04/19 10:36:22;;;;;;;6.20;2.72;;;22.20;54.60;;;;;;5088048;28;20493;-68
2022/04/19 10:39:16;;;;;;;2.50;1.73;;;22.40;54.80;;;;;;5073472;28;20036;-69
2022/04/19 10:41:59;;;;;;;3.85;2.55;;;22.40;55.30;;;;;;5056735;28;20189;-69
2022/04/19 10:44:41;;;;;;;4.40;2.03;;;22.40;56.20;;;;;;5083005;28;20060;-68
2022/04/19 10:47:18;;;;;;;3.72;2.35;;;22.50;54.50;;;;;;5064906;28;20097;-68
2022/04/19 10:50:07;;;;;;;3.75;2.45;;;22.30;54.20;;;;;;5091142;28;20043;-68
2022/04/19 10:52:45;;;;;;;4.70;2.45;;;22.40;53.80;;;;;;5096209;28;20050;-68
2022/04/19 10:55:14;;;;;;;5.32;2.22;;;22.40;53.10;;;;;;5095924;28;20040;-67
2022/04/19 11:00:31;;;;;;;9.50;2.50;;;22.30;52.50;;;;;;5075065;28;20040;-68
2022/04/19 11:03:07;;;;;;;2.45;2.10;;;22.30;52.40;;;;;;5074881;28;20047;-68
2022/04/19 11:05:47;;;;;;;2.75;1.73;;;22.40;52.10;;;;;;5075762;28;20048;-69
2022/04/19 11:08:26;;;;;;;3.60;1.77;;;22.30;52.70;;;;;;5075501;28;20033;-68
2022/04/19 11:10:55;;;;;;;5.95;2.85;;;22.60;57.50;;;;;;5076103;28;20045;-68
2022/04/19 11:13:41;;;;;;;2.47;1.70;;;22.80;59.90;;;;;;5075701;28;20045;-68
2022/04/19 11:16:11;;;;;;;1.60;1.50;;;22.80;53.70;;;;;;5075618;28;20041;-69
2022/04/19 11:18:37;;;;;;;7.65;2.08;;;22.70;53.40;;;;;;5075993;28;20071;-68
2022/04/19 11:21:12;;;;;;;2.75;1.65;;;22.60;53.00;;;;;;5075782;28;20054;-69
2022/04/19 11:23:49;;;;;;;4.57;1.95;;;22.60;53.10;;;;;;5075849;28;20048;-69
2022/04/19 11:26:42;;;;;;;2.17;1.65;;;22.60;53.10;;;;;;5075482;28;20052;-68
2022/04/19 11:29:09;;;;;;;;;;;22.60;52.40;;;;;;5075120;28;20048;-68
2022/04/19 11:31:36;;;;;;;3.67;1.85;;;22.60;53.40;;;;;;5075740;28;19934;-68
2022/04/19 11:34:16;;;;;;;2.63;2.20;;;22.60;53.20;;;;;;5075520;28;20059;-68
2022/04/19 11:36:43;;;;;;;5.15;2.05;;;22.50;52.90;;;;;;5075242;28;20037;-70
2022/04/19 11:46:44;;;;;;;3.58;2.28;;;22.60;52.90;;;;;;5074480;28;20045;-69
2022/04/19 11:47:47;;;;;;;5.07;2.08;;;22.70;53.50;;;;;;5075136;28;20044;-69
2022/04/19 11:50:31;;;;;;;4.68;2.08;;;22.80;52.10;;;;;;5073602;28;20065;-68
2022/04/19 11:53:00;;;;;;;3.08;2.50;;;22.80;53.50;;;;;;5077034;28;20096;-69
2022/04/19 11:55:27;;;;;;;3.78;2.17;;;22.80;53.80;;;;;;5078871;28;20041;-69
2022/04/19 11:58:07;;;;;;;5.07;2.05;;;22.80;56.50;;;;;;5078428;28;20059;-69
2022/04/19 12:00:34;;;;;;;5.60;2.20;;;22.80;58.00;;;;;;5079252;28;20037;-69
2022/04/19 12:03:03;;;;;;;3.47;1.90;;;22.80;55.90;;;;;;5079232;28;20037;-69
2022/04/19 12:05:31;;;;;;;7.32;2.67;;;22.70;51.60;;;;;;5077937;28;20116;-69
2022/04/19 12:07:57;;;;;;;6.72;2.65;;;22.70;53.00;;;;;;5079303;28;20044;-69
2022/04/19 12:10:23;;;;;;;3.25;2.35;;;22.50;52.90;;;;;;5079247;28;20055;-69
2022/04/19 12:12:50;;;;;;;2.78;2.08;;;22.50;53.80;;;;;;5079293;28;20037;-68
2022/04/19 12:15:40;;;;;;;2.13;1.55;;;22.50;52.90;;;;;;5079157;28;20066;-69
2022/04/19 12:18:06;;;;;;;3.15;1.90;;;22.40;52.50;;;;;;5079113;28;20040;-70
2022/04/19 12:20:45;;;;;;;3.83;2.53;;;22.50;52.30;;;;;;5079155;28;20037;-68
2022/04/19 12:23:20;;;;;;;2.35;1.77;;;22.50;53.60;;;;;;5078249;28;20048;-69
2022/04/19 12:26:07;;;;;;;3.55;2.15;;;22.50;54.10;;;;;;5078066;28;20041;-68
2022/04/19 12:28:47;;;;;;;2.80;1.90;;;22.50;48.20;;;;;;5078849;28;20544;-69
2022/04/19 12:31:38;;;;;;;3.47;2.00;;;22.50;54.30;;;;;;5078504;28;20109;-68
2022/04/19 12:34:05;;;;;;;3.05;2.30;;;22.40;54.60;;;;;;5078975;28;20044;-69
2022/04/19 12:36:48;;;;;;;2.42;1.63;;;22.50;52.70;;;;;;5078559;28;20060;-69
2022/04/19 12:39:22;;;;;;;4.00;2.00;;;22.40;53.90;;;;;;5078617;28;20032;-69
2022/04/19 12:41:49;;;;;;;2.90;2.00;;;22.40;54.10;;;;;;5078394;28;20067;-69
2022/04/19 12:44:18;;;;;;;5.13;2.50;;;22.40;53.70;;;;;;5077104;28;20099;-69
2022/04/19 12:46:45;;;;;;;3.85;2.35;;;22.40;53.80;;;;;;5078601;28;20051;-69
2022/04/19 12:49:31;;;;;;;5.32;2.03;;;22.40;52.00;;;;;;5078482;28;20036;-69
2022/04/19 12:51:58;;;;;;;3.78;1.90;;;22.40;54.00;;;;;;5078468;28;20517;-69
2022/04/19 12:54:28;;;;;;;2.58;1.88;;;22.40;53.60;;;;;;5078425;28;20037;-69
2022/04/19 12:57:02;;;;;;;4.63;1.83;;;22.40;54.20;;;;;;5078464;28;20040;-69
2022/04/19 12:59:33;;;;;;;2.38;2.17;;;22.40;54.20;;;;;;5078189;28;20045;-69
2022/04/19 13:02:00;;;;;;;5.10;2.17;;;22.40;53.40;;;;;;5078456;28;20041;-69
2022/04/19 13:04:27;;;;;;;5.50;2.45;;;22.30;53.80;;;;;;5078211;28;20060;-68
2022/04/19 13:12:26;;;;;;;6.00;2.58;;;22.30;54.00;;;;;;5078071;28;20041;-69
2022/04/19 13:14:55;;;;;;;3.05;2.13;;;22.30;54.30;;;;;;5078153;28;20069;-69
2022/04/19 13:17:22;;;;;;;4.80;2.58;;;22.30;54.30;;;;;;5077847;28;20029;-69
2022/04/19 13:19:49;;;;;;;5.32;2.47;;;22.20;52.00;;;;;;5077989;28;20064;-69
2022/04/19 13:22:15;;;;;;;4.03;1.83;;;22.20;53.30;;;;;;5078038;28;20140;-69
2022/04/19 13:24:42;;;;;;;4.60;2.10;;;22.10;53.90;;;;;;5077858;28;20041;-69
2022/04/19 13:27:12;;;;;;;4.32;2.30;;;22.30;53.40;;;;;;5077516;28;20064;-69
2022/04/19 13:29:40;;;;;;;4.18;1.77;;;22.20;52.50;;;;;;5077905;28;20048;-69
2022/04/19 13:32:08;;;;;;;5.65;2.22;;;22.10;53.70;;;;;;5077725;28;20060;-69
2022/04/19 13:34:35;;;;;;;4.78;1.85;;;22.20;54.00;;;;;;5077128;28;20041;-69
2022/04/19 13:37:02;;;;;;;6.20;2.33;;;22.20;54.30;;;;;;5077320;28;20037;-69
2022/04/19 13:39:29;;;;;;;3.92;2.63;;;22.20;54.00;;;;;;5077685;28;20071;-69
2022/04/19 13:41:55;;;;;;;2.85;2.08;;;22.20;54.00;;;;;;5077394;28;20048;-69